Time;durP1;ratioP1;P1;durP2;ratioP2;P2;SDS_P1;SDS_P2;PMS_P1;PMS_P2;Temp;Humidity;BMP_temperature;BMP_pressure;BME280_temperature;BME280_humidity;BME280_pressure;Samples;Min_cycle;Max_cycle;Signal;HPM_P1;HPM_P2
2022/03/25 00:01:57;;;;;;;;;;;;;;;2.25;60.11;102189.71;105236;1275;61011;-69
2022/03/25 00:04:24;;;;;;;;;;;;;;;2.20;59.82;102183.33;105168;1274;60490;-72
2022/03/25 00:06:52;;;;;;;;;;;;;;;2.18;59.93;102184.48;105145;1275;74127;-73
2022/03/25 00:09:18;;;;;;;;;;;;;;;2.15;60.18;102185.16;104924;1276;71120;-73
2022/03/25 00:11:54;;;;;;;;;;;;;;;2.13;60.08;102181.98;104993;1274;60899;-72
2022/03/25 00:14:20;;;;;;;;;;;;;;;2.09;60.10;102182.19;105028;1277;60659;-75
2022/03/25 00:16:47;;;;;;;;;;;;;;;2.05;60.36;102186.94;105159;1275;60391;-74
2022/03/25 00:19:17;;;;;;;;;;;;;;;2.01;60.54;102186.77;105216;1274;74025;-73
2022/03/25 00:21:44;;;;;;;;;;;;;;;1.99;60.76;102187.43;105302;1277;71434;-72
2022/03/25 00:24:13;;;;;;;;;;;;;;;1.96;61.08;102185.32;105083;1274;60883;-75
2022/03/25 00:26:39;;;;;;;;;;;;;;;1.95;61.22;102184.52;105032;1274;61317;-73
2022/03/25 00:29:06;;;;;;;;;;;;;;;1.93;61.22;102181.81;105122;1274;60749;-73
2022/03/25 00:31:52;;;;;;;;;;;;;;;1.90;61.19;102177.95;105057;1274;60600;-75
2022/03/25 00:34:19;;;;;;;;;;;;;;;1.88;61.36;102173.05;105066;1277;70452;-77
2022/03/25 00:36:46;;;;;;;;;;;;;;;1.84;61.35;102171.12;105750;1276;71971;-75
2022/03/25 00:39:15;;;;;;;;;;;;;;;1.83;61.49;102172.77;105185;1277;61023;-75
2022/03/25 00:42:16;;;;;;;;;;;;;;;1.80;61.44;102168.73;104962;1277;60453;-73
2022/03/25 00:45:03;;;;;;;;;;;;;;;1.79;62.00;102168.63;105031;1276;74113;-73
2022/03/25 00:47:36;;;;;;;;;;;;;;;1.78;62.19;102166.23;106117;1277;72381;-73
2022/03/25 00:50:06;;;;;;;;;;;;;;;1.76;62.43;102168.80;105212;1277;74179;-72
2022/03/25 00:52:34;;;;;;;;;;;;;;;1.74;62.63;102167.15;105079;1276;60313;-73
2022/03/25 00:55:07;;;;;;;;;;;;;;;1.72;62.70;102161.85;105126;1277;61211;-72
2022/03/25 00:57:33;;;;;;;;;;;;;;;1.69;62.95;102165.48;105212;1277;74251;-74
2022/03/25 01:00:00;;;;;;;;;;;;;;;1.67;63.27;102165.59;105169;1277;70702;-73
2022/03/25 01:02:47;;;;;;;;;;;;;;;1.66;63.90;102170.34;105052;1277;73841;-73
2022/03/25 01:05:13;;;;;;;;;;;;;;;1.64;64.36;102170.61;105058;1277;60451;-73
2022/03/25 01:07:46;;;;;;;;;;;;;;;1.62;64.48;102173.32;105131;1277;60453;-74
2022/03/25 01:10:15;;;;;;;;;;;;;;;1.58;64.56;102172.36;105111;1277;75301;-73
2022/03/25 01:13:13;;;;;;;;;;;;;;;;;;;;;
2022/03/25 01:15:39;;;;;;;;;;;;;;;1.45;64.49;102168.30;105063;1277;72426;-73
2022/03/25 01:18:27;;;;;;;;;;;;;;;1.39;64.81;102168.08;105194;1277;60309;-74
2022/03/25 01:20:56;;;;;;;;;;;;;;;1.32;64.95;102168.61;105139;1277;62675;-74
2022/03/25 01:23:25;;;;;;;;;;;;;;;1.27;65.20;102169.43;105147;1276;74861;-73
2022/03/25 01:25:55;;;;;;;;;;;;;;;1.20;65.25;102178.48;105076;1277;72462;-73
2022/03/25 01:28:25;;;;;;;;;;;;;;;1.14;65.78;102180.51;105118;1277;73955;-73
2022/03/25 01:30:54;;;;;;;;;;;;;;;1.08;65.84;102179.75;104982;1277;60471;-74
2022/03/25 01:33:22;;;;;;;;;;;;;;;1.03;65.95;102176.51;105162;1277;60658;-73
2022/03/25 01:35:48;;;;;;;;;;;;;;;1.00;66.17;102175.98;105115;1277;73989;-73
2022/03/25 01:38:15;;;;;;;;;;;;;;;0.98;66.46;102177.84;105152;1277;60710;-73
2022/03/25 01:40:42;;;;;;;;;;;;;;;0.98;66.64;102173.11;105000;1278;72678;-73
2022/03/25 01:43:08;;;;;;;;;;;;;;;0.99;66.60;102170.79;105072;1276;60415;-73
2022/03/25 01:45:42;;;;;;;;;;;;;;;1.00;66.44;102172.18;105098;1277;60655;-73
2022/03/25 01:48:11;;;;;;;;;;;;;;;0.99;66.36;102172.06;105127;1277;74520;-72
2022/03/25 01:50:38;;;;;;;;;;;;;;;0.96;66.54;102170.93;105190;1277;72408;-74
2022/03/25 01:53:15;;;;;;;;;;;;;;;0.95;66.62;102168.73;105104;1277;73115;-73
2022/03/25 01:55:48;;;;;;;;;;;;;;;0.94;66.58;102170.34;105023;1277;60842;-73
2022/03/25 01:58:18;;;;;;;;;;;;;;;0.93;66.91;102172.15;105118;1277;60398;-73
2022/03/25 02:00:45;;;;;;;;;;;;;;;0.91;66.93;102170.52;107739;1277;75643;-73
2022/03/25 02:03:13;;;;;;;;;;;;;;;0.89;67.02;102172.00;105100;1277;71488;-74
2022/03/25 02:05:40;;;;;;;;;;;;;;;0.88;67.73;102170.48;106067;1277;73010;-74
2022/03/25 02:08:07;;;;;;;;;;;;;;;0.87;68.04;102170.55;105119;1277;60762;-74
2022/03/25 02:10:37;;;;;;;;;;;;;;;0.88;68.21;102179.36;105106;1277;60410;-77
2022/03/25 02:13:13;;;;;;;;;;;;;;;0.87;68.10;102176.98;105087;1277;74154;-73
2022/03/25 02:15:41;;;;;;;;;;;;;;;0.84;68.05;102178.70;105109;1277;71468;-74
2022/03/25 02:18:09;;;;;;;;;;;;;;;0.81;68.24;102176.04;105730;1276;72543;-74
2022/03/25 02:20:37;;;;;;;;;;;;;;;0.79;68.57;102179.95;105300;1277;60456;-75
2022/03/25 02:23:24;;;;;;;;;;;;;;;0.78;68.74;102181.05;105030;1278;60577;-73
2022/03/25 02:25:51;;;;;;;;;;;;;;;0.75;68.74;102173.86;105144;1277;75188;-73
2022/03/25 02:28:18;;;;;;;;;;;;;;;0.73;68.96;102177.67;105185;1277;71366;-74
2022/03/25 02:30:45;;;;;;;;;;;;;;;0.72;69.09;102180.68;105046;1277;74414;-74
2022/03/25 02:33:14;;;;;;;;;;;;;;;0.69;69.08;102180.44;105070;1277;60436;-73
2022/03/25 02:35:42;;;;;;;;;;;;;;;0.68;69.08;102181.03;105083;1277;61953;-73
2022/03/25 02:38:12;;;;;;;;;;;;;;;0.67;69.21;102182.29;104983;1279;73406;-73
2022/03/25 02:40:47;;;;;;;;;;;;;;;0.66;69.17;102180.27;105811;1276;71503;-73
2022/03/25 02:43:13;;;;;;;;;;;;;;;0.65;69.33;102181.16;105093;1277;74255;-73
2022/03/25 02:45:45;;;;;;;;;;;;;;;0.64;69.22;102179.49;105122;1277;60475;-73
2022/03/25 02:48:13;;;;;;;;;;;;;;;0.62;69.32;102173.31;105150;1277;60639;-74
2022/03/25 02:50:39;;;;;;;;;;;;;;;0.61;69.45;102176.66;105154;1277;74351;-72
2022/03/25 02:53:16;;;;;;;;;;;;;;;0.57;69.26;102173.36;105122;1277;60430;-72
2022/03/25 02:55:43;;;;;;;;;;;;;;;0.56;69.40;102183.34;105139;1277;73987;-73
2022/03/25 02:58:11;;;;;;;;;;;;;;;0.53;69.27;102185.39;105106;1277;60383;-73
2022/03/25 03:00:38;;;;;;;;;;;;;;;0.50;69.48;102184.14;105178;1276;59741;-75
2022/03/25 03:03:04;;;;;;;;;;;;;;;0.48;69.64;102182.87;105193;1277;75419;-73
2022/03/25 03:05:39;;;;;;;;;;;;;;;0.46;69.72;102185.77;105165;1277;71581;-72
2022/03/25 03:08:06;;;;;;;;;;;;;;;0.43;69.69;102184.85;105072;1278;73162;-74
2022/03/25 03:10:35;;;;;;;;;;;;;;;0.39;69.77;102184.64;105071;1277;61701;-71
2022/03/25 03:13:05;;;;;;;;;;;;;;;0.36;69.86;102187.42;105112;1277;60453;-75
2022/03/25 03:15:36;;;;;;;;;;;;;;;0.33;69.76;102185.46;105840;1277;74036;-73
2022/03/25 03:18:03;;;;;;;;;;;;;;;0.30;69.83;102181.61;105162;1277;71113;-74
2022/03/25 03:20:30;;;;;;;;;;;;;;;0.28;70.01;102184.65;105128;1277;72679;-73
2022/03/25 03:23:00;;;;;;;;;;;;;;;0.26;70.00;102182.66;105060;1277;60386;-73
2022/03/25 03:25:27;;;;;;;;;;;;;;;0.24;70.21;102183.65;104961;1278;61273;-73
2022/03/25 03:27:55;;;;;;;;;;;;;;;0.21;70.10;102186.55;105081;1276;74099;-73
2022/03/25 03:30:22;;;;;;;;;;;;;;;0.19;70.58;102189.23;105177;1277;71417;-72
2022/03/25 03:32:55;;;;;;;;;;;;;;;0.18;70.76;102187.20;105083;1277;73172;-73
2022/03/25 03:35:22;;;;;;;;;;;;;;;0.15;70.93;102187.51;105052;1277;60868;-73
2022/03/25 03:37:48;;;;;;;;;;;;;;;0.14;71.37;102188.27;105167;1278;60658;-72
2022/03/25 03:40:15;;;;;;;;;;;;;;;0.12;71.47;102190.11;105175;1277;61236;-71
2022/03/25 03:42:42;;;;;;;;;;;;;;;0.09;71.49;102190.56;105131;1277;71736;-73
2022/03/25 03:45:21;;;;;;;;;;;;;;;0.07;71.56;102188.62;105077;1277;72921;-73
2022/03/25 03:47:52;;;;;;;;;;;;;;;0.02;71.54;102188.30;105111;1277;60450;-74
2022/03/25 03:50:19;;;;;;;;;;;;;;;-0.00;71.93;102183.88;105063;1278;60529;-72
2022/03/25 03:52:46;;;;;;;;;;;;;;;-0.02;72.01;102183.80;105080;1277;60326;-72
2022/03/25 03:55:15;;;;;;;;;;;;;;;-0.03;71.88;102181.20;105025;1277;72845;-73
2022/03/25 03:57:42;;;;;;;;;;;;;;;-0.05;72.09;102181.27;105163;1277;72991;-73
2022/03/25 04:00:12;;;;;;;;;;;;;;;-0.06;72.12;102183.23;105119;1277;60911;-74
2022/03/25 04:02:42;;;;;;;;;;;;;;;-0.08;71.98;102183.54;105875;1277;60425;-76
2022/03/25 04:05:10;;;;;;;;;;;;;;;-0.11;72.01;102182.95;108295;1276;74694;-75
2022/03/25 04:07:41;;;;;;;;;;;;;;;-0.12;72.16;102184.39;107833;1276;71362;-73
2022/03/25 04:10:08;;;;;;;;;;;;;;;-0.13;72.12;102185.13;105115;1277;72635;-73
2022/03/25 04:12:34;;;;;;;;;;;;;;;-0.14;72.19;102185.34;105120;1278;60338;-74
2022/03/25 04:15:01;;;;;;;;;;;;;;;-0.16;72.23;102182.30;105135;1277;61415;-73
2022/03/25 04:17:36;;;;;;;;;;;;;;;-0.15;72.35;102183.66;105157;1276;75417;-74
2022/03/25 04:20:03;;;;;;;;;;;;;;;-0.15;72.37;102182.80;105209;1277;71617;-74
2022/03/25 04:22:30;;;;;;;;;;;;;;;-0.16;72.48;102181.99;105077;1278;74647;-73
2022/03/25 04:24:56;;;;;;;;;;;;;;;-0.16;72.65;102187.91;105090;1277;60338;-74
2022/03/25 04:27:34;;;;;;;;;;;;;;;-0.16;72.77;102192.27;105125;1277;60460;-73
2022/03/25 04:30:00;;;;;;;;;;;;;;;-0.17;72.76;102189.84;107438;1276;74100;-73
2022/03/25 04:32:28;;;;;;;;;;;;;;;-0.18;72.78;102191.97;105194;1277;59766;-72
2022/03/25 04:34:54;;;;;;;;;;;;;;;-0.19;72.79;102196.73;105124;1277;73102;-73
2022/03/25 04:37:21;;;;;;;;;;;;;;;-0.21;72.76;102196.27;105109;1277;60679;-73
2022/03/25 04:39:51;;;;;;;;;;;;;;;-0.22;72.68;102198.42;105361;1277;60404;-73
2022/03/25 04:42:25;;;;;;;;;;;;;;;-0.24;72.81;102199.89;105142;1277;75181;-74
2022/03/25 04:44:53;;;;;;;;;;;;;;;-0.26;72.91;102204.15;105284;1277;72715;-75
2022/03/25 04:47:22;;;;;;;;;;;;;;;-0.28;72.91;102204.76;105653;1277;74013;-73
2022/03/25 04:49:49;;;;;;;;;;;;;;;-0.30;72.99;102202.06;105268;1277;60446;-74
2022/03/25 04:52:20;;;;;;;;;;;;;;;-0.32;73.17;102198.17;105204;1276;60549;-72
2022/03/25 04:54:54;;;;;;;;;;;;;;;-0.33;73.13;102198.21;105230;1277;75130;-73
2022/03/25 04:57:21;;;;;;;;;;;;;;;-0.35;73.42;102198.10;105211;1277;70461;-74
2022/03/25 04:59:50;;;;;;;;;;;;;;;-0.37;73.52;102198.73;105268;1277;74400;-73
2022/03/25 05:02:17;;;;;;;;;;;;;;;-0.38;73.61;102199.81;105302;1277;62301;-73
2022/03/25 05:04:50;;;;;;;;;;;;;;;-0.40;73.95;102199.89;105061;1277;61426;-74
2022/03/25 05:07:36;;;;;;;;;;;;;;;-0.42;73.84;102199.42;105100;1277;73565;-72
2022/03/25 05:10:03;;;;;;;;;;;;;;;-0.44;73.73;102196.57;105049;1277;72357;-73
2022/03/25 05:12:30;;;;;;;;;;;;;;;-0.45;74.05;102199.92;104997;1277;72263;-75
2022/03/25 05:14:57;;;;;;;;;;;;;;;-0.46;74.18;102198.24;105094;1276;60562;-72
2022/03/25 05:17:23;;;;;;;;;;;;;;;-0.47;74.42;102197.23;105115;1277;60478;-75
2022/03/25 05:19:50;;;;;;;;;;;;;;;-0.47;74.34;102201.94;105050;1277;60622;-72
2022/03/25 05:22:16;;;;;;;;;;;;;;;-0.48;74.39;102206.48;105129;1277;60437;-75
2022/03/25 05:24:43;;;;;;;;;;;;;;;-0.48;74.49;102204.77;106064;1276;72958;-69
2022/03/25 05:27:09;;;;;;;;;;;;;;;-0.47;74.74;102208.02;105347;1277;60467;-69
2022/03/25 05:29:36;;;;;;;;;;;;;;;-0.42;74.99;102208.66;105314;1277;60787;-69
2022/03/25 05:32:02;;;;;;;;;;;;;;;-0.34;75.11;102210.96;105202;1277;60442;-70
2022/03/25 05:34:29;;;;;;;;;;;;;;;-0.28;75.08;102211.55;105116;1277;60902;-69
2022/03/25 05:36:56;;;;;;;;;;;;;;;-0.22;75.14;102209.34;105025;1277;73903;-68
2022/03/25 05:39:23;;;;;;;;;;;;;;;-0.15;74.97;102210.10;105157;1276;62002;-74
2022/03/25 05:41:49;;;;;;;;;;;;;;;-0.09;74.81;102213.98;105060;1277;60526;-74
2022/03/25 05:44:17;;;;;;;;;;;;;;;-0.04;74.77;102214.98;105133;1276;72687;-72
2022/03/25 05:46:44;;;;;;;;;;;;;;;0.02;74.70;102215.76;105025;1277;71248;-73
2022/03/25 05:49:11;;;;;;;;;;;;;;;0.09;74.67;102218.23;105136;1277;74241;-72
2022/03/25 05:51:37;;;;;;;;;;;;;;;0.14;74.45;102220.64;105113;1277;60395;-72
2022/03/25 05:54:04;;;;;;;;;;;;;;;0.19;74.68;102224.23;105134;1276;61890;-73
2022/03/25 05:56:31;;;;;;;;;;;;;;;0.25;74.68;102229.50;105151;1277;75340;-72
2022/03/25 05:58:58;;;;;;;;;;;;;;;0.31;74.87;102231.84;105175;1277;71360;-73
2022/03/25 06:01:29;;;;;;;;;;;;;;;0.39;74.72;102234.29;105181;1277;72998;-73
2022/03/25 06:03:55;;;;;;;;;;;;;;;0.47;74.51;102236.68;105346;1276;60506;-72
2022/03/25 06:06:22;;;;;;;;;;;;;;;0.55;74.37;102237.70;105154;1277;60538;-72
2022/03/25 06:08:49;;;;;;;;;;;;;;;0.64;74.15;102242.51;105102;1277;74092;-73
2022/03/25 06:11:16;;;;;;;;;;;;;;;0.71;74.21;102243.91;105122;1277;72360;-74
2022/03/25 06:13:45;;;;;;;;;;;;;;;0.80;73.93;102245.07;105226;1277;73027;-74
2022/03/25 06:16:11;;;;;;;;;;;;;;;0.88;73.85;102246.75;105189;1277;60460;-73
2022/03/25 06:18:38;;;;;;;;;;;;;;;0.98;73.84;102250.30;105284;1276;60935;-73
2022/03/25 06:21:05;;;;;;;;;;;;;;;1.07;73.79;102249.30;105026;1278;74102;-74
2022/03/25 06:23:32;;;;;;;;;;;;;;;1.19;73.78;102249.80;104917;1277;72804;-75
2022/03/25 06:25:59;;;;;;;;;;;;;;;1.31;73.67;102253.02;104968;1277;74270;-72
2022/03/25 06:28:26;;;;;;;;;;;;;;;1.44;73.75;102254.63;105047;1277;60822;-75
2022/03/25 06:30:52;;;;;;;;;;;;;;;1.56;73.71;102256.31;105028;1277;61680;-74
2022/03/25 06:33:19;;;;;;;;;;;;;;;1.69;73.75;102254.08;105005;1277;60651;-72
2022/03/25 06:35:45;;;;;;;;;;;;;;;1.82;73.70;102252.17;104900;1277;60426;-70
2022/03/25 06:38:12;;;;;;;;;;;;;;;1.95;73.51;102257.93;104949;1277;60549;-70
2022/03/25 06:40:39;;;;;;;;;;;;;;;2.09;73.22;102257.20;105012;1277;61685;-71
2022/03/25 06:43:06;;;;;;;;;;;;;;;2.22;73.16;102259.30;104836;1277;60542;-73
2022/03/25 06:45:34;;;;;;;;;;;;;;;2.36;72.86;102257.34;104845;1277;73089;-71
2022/03/25 06:48:01;;;;;;;;;;;;;;;2.49;72.57;102262.08;104885;1276;72630;-70
2022/03/25 06:50:27;;;;;;;;;;;;;;;2.62;72.37;102268.71;104810;1277;60437;-70
2022/03/25 06:52:54;;;;;;;;;;;;;;;2.73;72.19;102262.29;104883;1277;60762;-72
2022/03/25 06:55:21;;;;;;;;;;;;;;;2.87;72.12;102262.23;104888;1277;60561;-70
2022/03/25 06:57:51;;;;;;;;;;;;;;;3.01;71.78;102266.17;104872;1277;74123;-71
2022/03/25 07:00:19;;;;;;;;;;;;;;;3.15;71.70;102269.04;104955;1277;73521;-72
2022/03/25 07:02:46;;;;;;;;;;;;;;;3.30;71.34;102268.70;104912;1277;73037;-69
2022/03/25 07:05:16;;;;;;;;;;;;;;;3.45;71.26;102269.59;104812;1277;60469;-71
2022/03/25 07:07:43;;;;;;;;;;;;;;;3.60;71.06;102273.25;104982;1277;60453;-69
2022/03/25 07:10:11;;;;;;;;;;;;;;;3.76;70.76;102271.78;104853;1276;75447;-70
2022/03/25 07:12:41;;;;;;;;;;;;;;;3.92;70.27;102271.88;105073;1276;71668;-69
2022/03/25 07:15:08;;;;;;;;;;;;;;;4.07;70.13;102273.54;104460;1276;519070;-69
2022/03/25 07:17:37;;;;;;;;;;;;;;;4.24;69.84;102278.15;104835;1277;61241;-72
2022/03/25 07:20:06;;;;;;;;;;;;;;;4.42;69.42;102275.48;104843;1277;60591;-73
2022/03/25 07:22:34;;;;;;;;;;;;;;;4.59;68.66;102281.40;104944;1277;75483;-72
2022/03/25 07:25:00;;;;;;;;;;;;;;;4.76;68.16;102280.48;104938;1277;71497;-71
2022/03/25 07:27:27;;;;;;;;;;;;;;;4.94;67.52;102287.77;104963;1276;60374;-69
2022/03/25 07:29:53;;;;;;;;;;;;;;;5.13;67.05;102287.61;104876;1277;60933;-69
2022/03/25 07:32:19;;;;;;;;;;;;;;;5.30;66.65;102288.59;104925;1278;60520;-69
2022/03/25 07:34:46;;;;;;;;;;;;;;;5.46;66.26;102291.38;104950;1277;60463;-69
2022/03/25 07:37:13;;;;;;;;;;;;;;;5.63;65.89;102298.13;104912;1276;60485;-71
2022/03/25 07:39:41;;;;;;;;;;;;;;;5.82;65.55;102299.16;104894;1277;60585;-70
2022/03/25 07:42:08;;;;;;;;;;;;;;;6.01;65.19;102301.73;104878;1277;60648;-70
2022/03/25 07:44:36;;;;;;;;;;;;;;;6.19;64.54;102302.77;104969;1277;60578;-71
2022/03/25 07:47:03;;;;;;;;;;;;;;;6.36;63.48;102309.16;105012;1277;73867;-72
2022/03/25 07:49:29;;;;;;;;;;;;;;;6.53;62.91;102309.03;105018;1276;71368;-71
2022/03/25 07:51:55;;;;;;;;;;;;;;;6.70;61.99;102312.69;104899;1276;61579;-69
2022/03/25 07:54:22;;;;;;;;;;;;;;;6.88;61.14;102315.86;104915;1276;60613;-68
2022/03/25 07:56:48;;;;;;;;;;;;;;;7.07;59.97;102316.44;104992;1277;60441;-71
2022/03/25 07:59:15;;;;;;;;;;;;;;;7.26;59.02;102316.80;105009;1276;61395;-71
2022/03/25 08:01:42;;;;;;;;;;;;;;;7.46;59.08;102320.06;107095;1276;71102;-69
2022/03/25 08:04:09;;;;;;;;;;;;;;;7.66;58.56;102321.20;104940;1276;72815;-70
2022/03/25 08:06:36;;;;;;;;;;;;;;;7.86;58.04;102326.89;108246;1276;59526;-72
2022/03/25 08:09:05;;;;;;;;;;;;;;;8.06;57.57;102326.77;107940;1276;58280;-72
2022/03/25 08:11:33;;;;;;;;;;;;;;;8.27;57.14;102327.41;105071;1276;75155;-70
2022/03/25 08:14:00;;;;;;;;;;;;;;;8.48;56.65;102330.91;105008;1277;60473;-70
2022/03/25 08:16:26;;;;;;;;;;;;;;;8.67;55.71;102334.57;105052;1277;60681;-70
2022/03/25 08:18:53;;;;;;;;;;;;;;;8.86;55.26;102335.67;104969;1277;60495;-72
2022/03/25 08:21:19;;;;;;;;;;;;;;;9.02;54.55;102334.77;105050;1277;60470;-71
2022/03/25 08:29:17;;;;;;;;;;;;;;;9.56;51.29;102344.84;105046;1277;73022;-71
2022/03/25 08:31:45;;;;;;;;;;;;;;;9.76;50.70;102347.52;105029;1276;61747;-70
2022/03/25 08:34:14;;;;;;;;;;;;;;;9.99;50.40;102350.03;106980;1276;60356;-70
2022/03/25 08:36:41;;;;;;;;;;;;;;;10.22;49.91;102351.81;104997;1277;76079;-71
2022/03/25 08:39:08;;;;;;;;;;;;;;;10.38;48.17;102347.98;104916;1276;72641;-69
2022/03/25 08:41:35;;;;;;;;;;;;;;;10.53;47.93;102344.03;105055;1277;73096;-69
2022/03/25 08:44:01;;;;;;;;;;;;;;;10.70;47.40;102347.29;104960;1276;60415;-69
2022/03/25 08:46:28;;;;;;;;;;;;;;;10.89;47.51;102350.19;105004;1276;60578;-70
2022/03/25 08:48:55;;;;;;;;;;;;;;;11.09;46.81;102353.22;104971;1277;73751;-69
2022/03/25 08:51:21;;;;;;;;;;;;;;;11.28;46.33;102353.46;104962;1276;60327;-69
2022/03/25 08:53:48;;;;;;;;;;;;;;;11.47;45.52;102352.81;105258;1276;60536;-70
2022/03/25 08:56:15;;;;;;;;;;;;;;;11.64;44.82;102352.98;105191;1276;60672;-71
2022/03/25 08:58:41;;;;;;;;;;;;;;;11.82;44.26;102352.98;105118;1276;60541;-72
2022/03/25 09:01:08;;;;;;;;;;;;;;;11.99;43.98;102352.99;106870;1276;76128;-72
2022/03/25 09:03:35;;;;;;;;;;;;;;;12.16;44.00;102354.38;105035;1277;71432;-70
2022/03/25 09:06:01;;;;;;;;;;;;;;;12.37;43.40;102352.04;105060;1276;72843;-70
2022/03/25 09:08:33;;;;;;;;;;;;;;;12.56;42.11;102350.08;104932;1276;61540;-70
2022/03/25 09:10:59;;;;;;;;;;;;;;;12.72;41.40;102352.66;104971;1276;60759;-70
2022/03/25 09:13:25;;;;;;;;;;;;;;;12.86;41.28;102356.12;105706;1276;60558;-72
2022/03/25 09:15:52;;;;;;;;;;;;;;;13.03;40.84;102354.22;105040;1276;60450;-72
2022/03/25 09:18:19;;;;;;;;;;;;;;;13.20;39.77;102355.45;104949;1277;72013;-70
2022/03/25 09:20:45;;;;;;;;;;;;;;;13.34;38.84;102354.98;104966;1277;60548;-70
2022/03/25 09:23:12;;;;;;;;;;;;;;;13.49;37.84;102359.48;105058;1277;60458;-71
2022/03/25 09:25:39;;;;;;;;;;;;;;;13.62;36.97;102359.27;104954;1277;74287;-73
2022/03/25 09:28:06;;;;;;;;;;;;;;;13.67;36.17;102357.17;105056;1277;71419;-72
2022/03/25 09:30:33;;;;;;;;;;;;;;;13.78;36.62;102357.88;105009;1277;72986;-74
2022/03/25 09:33:02;;;;;;;;;;;;;;;13.94;37.03;102360.20;105053;1276;61277;-71
2022/03/25 09:35:33;;;;;;;;;;;;;;;14.14;36.75;102356.83;105031;1276;61593;-68
2022/03/25 09:37:59;;;;;;;;;;;;;;;14.29;35.98;102357.75;105106;1275;74063;-67
2022/03/25 09:40:26;;;;;;;;;;;;;;;14.44;35.80;102363.70;105038;1277;60369;-69
2022/03/25 09:42:55;;;;;;;;;;;;;;;14.59;35.81;102362.52;105479;1277;72965;-70
2022/03/25 09:45:22;;;;;;;;;;;;;;;14.77;35.42;102359.09;106578;1277;60737;-69
2022/03/25 09:47:49;;;;;;;;;;;;;;;14.88;34.09;102353.63;104985;1276;60432;-70
2022/03/25 09:50:17;;;;;;;;;;;;;;;14.97;34.36;102354.95;105003;1277;74263;-69
2022/03/25 09:52:45;;;;;;;;;;;;;;;15.14;34.47;102354.58;105080;1276;71201;-70
2022/03/25 09:55:31;;;;;;;;;;;;;;;15.35;35.11;102354.88;105073;1277;72936;-71
2022/03/25 09:57:58;;;;;;;;;;;;;;;15.55;34.93;102357.49;105374;1277;61280;-71
2022/03/25 10:00:24;;;;;;;;;;;;;;;15.74;34.90;102357.23;104949;1277;60462;-70
2022/03/25 10:02:51;;;;;;;;;;;;;;;15.89;34.08;102357.92;105047;1277;76398;-69
2022/03/25 10:05:18;;;;;;;;;;;;;;;16.00;33.90;102358.48;104975;1277;71561;-70
2022/03/25 10:07:51;;;;;;;;;;;;;;;16.13;33.64;102352.61;104929;1276;73169;-69
2022/03/25 10:10:19;;;;;;;;;;;;;;;16.29;33.97;102353.64;105019;1276;61593;-70
2022/03/25 10:12:50;;;;;;;;;;;;;;;16.41;33.39;102354.14;104933;1277;60735;-71
2022/03/25 10:15:16;;;;;;;;;;;;;;;16.51;33.10;102349.43;104902;1277;75162;-70
2022/03/25 10:17:48;;;;;;;;;;;;;;;16.64;33.51;102350.24;104949;1276;60367;-70
2022/03/25 10:20:15;;;;;;;;;;;;;;;16.81;34.13;102351.76;104907;1276;74007;-70
2022/03/25 10:23:01;;;;;;;;;;;;;;;16.95;34.12;102351.52;104952;1276;61931;-72
2022/03/25 10:25:48;;;;;;;;;;;;;;;17.05;33.26;102350.06;104954;1276;60538;-70
2022/03/25 10:28:20;;;;;;;;;;;;;;;17.10;32.71;102353.34;106117;1277;74258;-71
2022/03/25 10:30:49;;;;;;;;;;;;;;;17.17;32.98;102351.02;104852;1276;71561;-72
2022/03/25 10:33:21;;;;;;;;;;;;;;;17.24;33.25;102345.34;104841;1276;73968;-77
2022/03/25 10:35:53;;;;;;;;;;;;;;;17.25;33.35;102346.70;104806;1276;61189;-71
2022/03/25 10:38:21;;;;;;;;;;;;;;;17.28;34.35;102348.59;104801;1278;60948;-72
2022/03/25 10:40:56;;;;;;;;;;;;;;;17.39;34.73;102345.02;104810;1277;72898;-73
2022/03/25 10:43:24;;;;;;;;;;;;;;;17.49;34.91;102344.98;104916;1277;71479;-71
2022/03/25 10:45:51;;;;;;;;;;;;;;;17.60;35.14;102346.91;104767;1276;74207;-72
2022/03/25 10:48:18;;;;;;;;;;;;;;;17.72;34.71;102343.30;104776;1277;60668;-71
2022/03/25 10:50:54;;;;;;;;;;;;;;;17.76;34.22;102341.92;104790;1276;60396;-71
2022/03/25 10:53:24;;;;;;;;;;;;;;;17.79;34.79;102340.33;104745;1277;74142;-71
2022/03/25 10:56:01;;;;;;;;;;;;;;;17.93;34.30;102344.80;105173;1276;71585;-72
2022/03/25 10:58:28;;;;;;;;;;;;;;;18.03;34.36;102341.12;104771;1277;73953;-71
2022/03/25 11:00:55;;;;;;;;;;;;;;;18.14;34.33;102337.84;104785;1276;60805;-71
2022/03/25 11:03:23;;;;;;;;;;;;;;;18.19;34.00;102331.23;104823;1278;61659;-70
2022/03/25 11:05:51;;;;;;;;;;;;;;;18.22;33.51;102331.98;104849;1276;74259;-69
2022/03/25 11:08:17;;;;;;;;;;;;;;;18.27;33.63;102333.55;104789;1276;72086;-68
2022/03/25 11:10:51;;;;;;;;;;;;;;;18.37;33.83;102331.83;104697;1276;72756;-70
2022/03/25 11:13:18;;;;;;;;;;;;;;;18.46;33.42;102333.02;104793;1277;61722;-70
2022/03/25 11:15:46;;;;;;;;;;;;;;;18.58;33.17;102333.05;105027;1276;61355;-70
2022/03/25 11:18:13;;;;;;;;;;;;;;;18.71;33.08;102334.04;104823;1276;73527;-71
2022/03/25 11:20:40;;;;;;;;;;;;;;;18.86;32.74;102330.02;104804;1276;71545;-70
2022/03/25 11:23:16;;;;;;;;;;;;;;;18.97;32.54;102332.50;104868;1276;60588;-72
2022/03/25 11:25:47;;;;;;;;;;;;;;;19.03;32.17;102329.91;104895;1277;61417;-68
2022/03/25 11:28:20;;;;;;;;;;;;;;;19.03;31.82;102330.40;104887;1277;60525;-69
2022/03/25 11:30:57;;;;;;;;;;;;;;;19.02;32.21;102326.48;104837;1277;75784;-71
2022/03/25 11:33:23;;;;;;;;;;;;;;;19.04;31.81;102325.57;104829;1277;70821;-71
2022/03/25 11:36:10;;;;;;;;;;;;;;;19.13;32.15;102327.64;104608;1278;60497;-71
2022/03/25 11:38:36;;;;;;;;;;;;;;;19.32;31.91;102326.31;104827;1276;61648;-71
2022/03/25 11:41:22;;;;;;;;;;;;;;;19.40;31.48;102323.09;104833;1276;60437;-70
2022/03/25 11:44:08;;;;;;;;;;;;;;;19.41;30.87;102318.02;104754;1276;73905;-72
2022/03/25 11:46:34;;;;;;;;;;;;;;;19.28;30.84;102320.77;104791;1277;70554;-72
2022/03/25 11:49:18;;;;;;;;;;;;;;;19.34;30.89;102315.80;104827;1276;60540;-73
2022/03/25 11:51:45;;;;;;;;;;;;;;;19.51;31.17;102319.63;104822;1276;60815;-71
2022/03/25 11:54:31;;;;;;;;;;;;;;;19.74;30.25;102314.11;104760;1276;61634;-71
2022/03/25 11:56:57;;;;;;;;;;;;;;;20.00;29.98;102311.77;104782;1276;75370;-72
2022/03/25 11:59:24;;;;;;;;;;;;;;;20.37;29.19;102310.11;104776;1276;71829;-71
2022/03/25 12:02:10;;;;;;;;;;;;;;;20.80;28.73;102305.36;104801;1276;60412;-70
2022/03/25 12:04:38;;;;;;;;;;;;;;;21.23;28.28;102301.56;104787;1276;62252;-71
2022/03/25 12:07:08;;;;;;;;;;;;;;;21.61;27.87;102298.80;104799;1276;60913;-71
2022/03/25 12:09:36;;;;;;;;;;;;;;;21.85;27.30;102299.47;104858;1276;74110;-72
2022/03/25 12:12:03;;;;;;;;;;;;;;;22.07;27.28;102297.08;104793;1276;72434;-72
2022/03/25 12:14:36;;;;;;;;;;;;;;;22.47;27.10;102297.08;104781;1277;72912;-73
2022/03/25 12:17:09;;;;;;;;;;;;;;;22.92;26.27;102288.02;104842;1277;61247;-72
2022/03/25 12:19:41;;;;;;;;;;;;;;;23.43;24.73;102285.70;105015;1277;60488;-72
2022/03/25 12:22:17;;;;;;;;;;;;;;;23.93;24.30;102283.07;104890;1276;74176;-72
2022/03/25 12:24:45;;;;;;;;;;;;;;;24.52;24.11;102278.98;104858;1277;72515;-71
2022/03/25 12:27:11;;;;;;;;;;;;;;;24.89;22.85;102273.86;104907;1277;72909;-72
2022/03/25 12:29:39;;;;;;;;;;;;;;;25.15;22.64;102275.88;104728;1276;60457;-72
2022/03/25 12:32:09;;;;;;;;;;;;;;;25.60;22.88;102274.40;104760;1276;60567;-71
2022/03/25 12:34:37;;;;;;;;;;;;;;;26.52;21.82;102273.38;104880;1276;74493;-70
2022/03/25 12:37:06;;;;;;;;;;;;;;;26.84;20.53;102276.30;104878;1277;60431;-70
2022/03/25 12:39:32;;;;;;;;;;;;;;;27.40;20.90;102264.31;104835;1276;73077;-71
2022/03/25 12:41:59;;;;;;;;;;;;;;;28.11;20.30;102262.55;104751;1277;61099;-71
2022/03/25 12:44:30;;;;;;;;;;;;;;;28.53;19.40;102252.16;104841;1276;60441;-71
2022/03/25 12:46:57;;;;;;;;;;;;;;;29.03;19.44;102256.38;104820;1277;74224;-73
2022/03/25 12:49:24;;;;;;;;;;;;;;;29.39;18.39;102251.90;104887;1277;70818;-73